Terminal Aerodrome Forecast
Issued by NWS

Home | Current Version | Previous Version | Text Only | Print | Product List | Glossary On
Versions: 1 2 3 4 5 6 7 8 9 10 11 12 13 14 15 16 17 18 19 20 21 22 23 24 25 26 27 28 29 30
000
FTUS45 KABQ 221742
TAFROW
TAF
KROW 221742Z 2218/2318 02013KT P6SM BKN120
     FM222300 06015G23KT P6SM BKN050
      TEMPO 2302/2306 VRB20G35KT 2SM TSRA OVC018CB
     FM230600 35015G25KT 5SM -RA OVC018
     FM231300 36013KT P6SM OVC025=

USA.gov is the U.S. government's official web portal to all federal, state and local government web resources and services.